createdAt,value
2024-03-05T00:01:00.959Z,98014.57
2024-03-05T00:03:46.277Z,98011.08
2024-03-05T00:06:18.117Z,98014.01
2024-03-05T00:08:49.900Z,98013.98
2024-03-05T00:11:22.616Z,98021.58
2024-03-05T00:13:54.631Z,98025.98
2024-03-05T00:16:26.502Z,98029.38
2024-03-05T00:18:58.260Z,98032.02
2024-03-05T00:21:30.016Z,98032.39
2024-03-05T00:24:02.567Z,98035.41
2024-03-05T00:26:34.507Z,98037.53
2024-03-05T00:29:06.569Z,98041.89
2024-03-05T00:31:41.137Z,98046.60
2024-03-05T00:34:12.962Z,98047.18
2024-03-05T00:36:45.070Z,98049.31
2024-03-05T00:39:16.936Z,98047.10
2024-03-05T00:41:49.510Z,98047.15
2024-03-05T00:44:21.308Z,98047.00
2024-03-05T00:46:54.063Z,98044.92
2024-03-05T00:49:26.060Z,98044.40
2024-03-05T00:51:57.859Z,98046.71
2024-03-05T00:54:30.120Z,98043.11
2024-03-05T00:57:01.907Z,98050.84
2024-03-05T00:59:33.688Z,98049.38
2024-03-05T01:02:05.920Z,98047.98
2024-03-05T01:04:37.776Z,98048.20
2024-03-05T01:07:10.893Z,98046.53
2024-03-05T01:09:42.664Z,98048.86
2024-03-05T01:12:14.929Z,98045.98
2024-03-05T01:14:46.740Z,98046.04
2024-03-05T01:17:18.594Z,98041.95
2024-03-05T01:19:50.514Z,98038.67
2024-03-05T01:22:22.516Z,98043.95
2024-03-05T01:24:54.432Z,98046.25
2024-03-05T01:27:26.227Z,98049.38
2024-03-05T01:30:00.866Z,98048.86
2024-03-05T01:32:33.718Z,98047.12
2024-03-05T01:35:10.233Z,98047.29
2024-03-05T01:37:42.701Z,98045.36
2024-03-05T01:40:15.596Z,98043.63
2024-03-05T01:42:47.405Z,98047.46
2024-03-05T01:45:20.452Z,98053.72
2024-03-05T01:47:52.623Z,98054.78
2024-03-05T01:50:24.841Z,98053.04
2024-03-05T01:52:56.985Z,98062.29
2024-03-05T01:55:28.984Z,98067.52
2024-03-05T01:58:05.142Z,98072.59
2024-03-05T02:00:38.466Z,98073.29
2024-03-05T02:03:12.435Z,98075.23
2024-03-05T02:05:45.754Z,98079.44
2024-03-05T02:08:19.201Z,98075.80
2024-03-05T02:10:51.348Z,98070.06
2024-03-05T02:13:23.510Z,98064.16
2024-03-05T02:15:55.465Z,98067.17
2024-03-05T02:18:27.413Z,98062.69
2024-03-05T02:21:05.072Z,98067.40
2024-03-05T02:23:36.829Z,98067.56
2024-03-05T02:26:08.811Z,98066.35
2024-03-05T02:28:41.606Z,98071.05
2024-03-05T02:31:13.612Z,98072.29
2024-03-05T02:33:46.092Z,98075.09
2024-03-05T02:36:17.904Z,98078.91
2024-03-05T02:38:50.009Z,98083.77
2024-03-05T02:41:22.309Z,98086.39
2024-03-05T02:43:54.314Z,98087.45
2024-03-05T02:46:26.845Z,98090.24
2024-03-05T02:48:58.704Z,98093.63
2024-03-05T02:51:30.579Z,98097.16
2024-03-05T02:54:02.365Z,98098.79
2024-03-05T02:56:34.906Z,98097.59
2024-03-05T02:59:06.819Z,98099.87
2024-03-05T03:01:38.721Z,98103.00
2024-03-05T03:04:11.444Z,98103.38
2024-03-05T03:06:44.276Z,98107.61
2024-03-05T03:09:16.058Z,98111.32
2024-03-05T03:11:50.850Z,98109.45
2024-03-05T03:14:22.699Z,98115.77
2024-03-05T03:16:55.606Z,98114.03
2024-03-05T03:19:27.463Z,98111.41
2024-03-05T03:21:59.230Z,98111.41
2024-03-05T03:24:31.028Z,98110.02
2024-03-05T03:27:02.963Z,98114.05
2024-03-05T03:29:35.249Z,98117.39
2024-03-05T03:32:08.347Z,98124.23
2024-03-05T03:34:42.481Z,98128.79
2024-03-05T03:37:14.464Z,98129.00
2024-03-05T03:39:47.213Z,98130.04
2024-03-05T03:42:19.273Z,98133.90
2024-03-05T03:44:51.663Z,98138.45
2024-03-05T03:47:23.829Z,98138.96
2024-03-05T03:49:55.729Z,98135.47
2024-03-05T03:52:27.549Z,98138.80
2024-03-05T03:54:59.397Z,98143.52
2024-03-05T03:57:33.643Z,98148.04
2024-03-05T04:00:09.034Z,98153.62
2024-03-05T04:02:41.788Z,98150.00
2024-03-05T04:05:14.603Z,98156.66
2024-03-05T04:07:46.487Z,98154.47
2024-03-05T04:10:18.750Z,98158.67
2024-03-05T04:12:50.734Z,98160.77
2024-03-05T04:15:22.917Z,98160.77
2024-03-05T04:17:54.731Z,98160.95
2024-03-05T04:20:26.545Z,98159.20
2024-03-05T04:22:58.415Z,98161.47
2024-03-05T04:25:35.953Z,98164.80
2024-03-05T04:28:12.284Z,98169.54
2024-03-05T04:30:47.436Z,98169.02
2024-03-05T04:33:21.522Z,98172.55
2024-03-05T04:35:53.349Z,98175.52
2024-03-05T04:38:25.112Z,98168.91
2024-03-05T04:40:57.002Z,98176.95
2024-03-05T04:43:28.834Z,98178.70
2024-03-05T04:46:00.909Z,98184.28
2024-03-05T04:48:32.983Z,98186.19
2024-03-05T04:51:04.785Z,98188.64
2024-03-05T04:53:37.296Z,98189.50
2024-03-05T04:56:09.553Z,98194.71
2024-03-05T04:58:42.136Z,98194.05
2024-03-05T05:01:14.069Z,98196.86
2024-03-05T05:03:45.861Z,98201.04
2024-03-05T05:06:17.613Z,98203.32
2024-03-05T05:08:50.333Z,98202.48
2024-03-05T05:11:22.892Z,98204.92
2024-03-05T05:13:54.799Z,98205.27
2024-03-05T05:16:27.798Z,98204.09
2024-03-05T05:18:59.982Z,98205.88
2024-03-05T05:21:31.766Z,98208.14
2024-03-05T05:24:03.578Z,98208.69
2024-03-05T05:26:35.539Z,98207.69
2024-03-05T05:29:07.377Z,98207.55
2024-03-05T05:31:39.239Z,98207.38
2024-03-05T05:34:11.144Z,98209.48
2024-03-05T05:36:42.964Z,98213.83
2024-03-05T05:39:16.146Z,98220.45
2024-03-05T05:41:48.161Z,98224.63
2024-03-05T05:44:20.099Z,98225.86
2024-03-05T05:46:52.056Z,98227.98
2024-03-05T05:49:24.420Z,98229.89
2024-03-05T05:51:56.319Z,98229.36
2024-03-05T05:54:30.513Z,98228.33
2024-03-05T05:57:03.144Z,98229.73
2024-03-05T05:59:35.326Z,98225.37
2024-03-05T06:02:10.030Z,98231.64
2024-03-05T06:04:44.798Z,98238.59
2024-03-05T06:07:16.754Z,98242.07
2024-03-05T06:09:48.661Z,98247.13
2024-03-05T06:12:23.936Z,98251.48
2024-03-05T06:14:56.013Z,98257.95
2024-03-05T06:17:27.998Z,98259.36
2024-03-05T06:20:00.212Z,98261.80
2024-03-05T06:22:34.690Z,98265.29
2024-03-05T06:25:08.329Z,98268.30
2024-03-05T06:27:40.608Z,98264.30
2024-03-05T06:30:16.535Z,98271.28
2024-03-05T06:32:49.817Z,98275.98
2024-03-05T06:35:24.062Z,98276.70
2024-03-05T06:37:56.056Z,98278.59
2024-03-05T06:40:28.179Z,98278.11
2024-03-05T06:43:06.648Z,98285.57
2024-03-05T06:45:39.332Z,98290.10
2024-03-05T06:48:17.553Z,98295.87
2024-03-05T06:50:53.686Z,98297.31
2024-03-05T06:53:57.910Z,98299.73
2024-03-05T06:56:43.593Z,98307.03
2024-03-05T06:59:15.372Z,98307.00
2024-03-05T07:01:47.289Z,98308.02
2024-03-05T07:04:19.145Z,98314.45
2024-03-05T07:06:51.250Z,98311.67
2024-03-05T07:09:28.348Z,98314.23
2024-03-05T07:12:00.795Z,98315.27
2024-03-05T07:14:33.193Z,98317.02
2024-03-05T07:17:07.523Z,98317.73
2024-03-05T07:19:39.402Z,98317.17
2024-03-05T07:22:13.060Z,98319.77
2024-03-05T07:24:44.834Z,98325.15
2024-03-05T07:27:16.612Z,98325.84
2024-03-05T07:29:48.444Z,98326.35
2024-03-05T07:32:20.238Z,98331.23
2024-03-05T07:34:52.096Z,98330.16
2024-03-05T07:37:23.981Z,98333.45
2024-03-05T07:39:55.769Z,98333.99
2024-03-05T07:42:27.536Z,98332.77
2024-03-05T07:44:59.321Z,98339.19
2024-03-05T07:47:32.023Z,98339.52
2024-03-05T07:50:04.057Z,98341.09
2024-03-05T07:52:35.982Z,98341.44
2024-03-05T07:55:11.100Z,98344.57
2024-03-05T07:57:43.722Z,98349.92
2024-03-05T08:00:18.488Z,98352.30
2024-03-05T08:02:51.434Z,98353.99
2024-03-05T08:05:24.475Z,98357.60
2024-03-05T08:07:57.700Z,98358.23
2024-03-05T08:10:30.326Z,98362.88
2024-03-05T08:13:03.273Z,98361.04
2024-03-05T08:15:35.235Z,98366.15
2024-03-05T08:18:11.979Z,98367.62
2024-03-05T08:20:43.839Z,98366.09
2024-03-05T08:23:15.596Z,98358.41
2024-03-05T08:25:50.340Z,98364.25
2024-03-05T08:28:22.256Z,98364.05
2024-03-05T08:30:55.050Z,98368.20
2024-03-05T08:33:29.489Z,98363.88
2024-03-05T08:36:01.273Z,98367.13
2024-03-05T08:38:33.068Z,98370.15
2024-03-05T08:41:05.257Z,98372.38
2024-03-05T08:43:37.202Z,98375.43
2024-03-05T08:46:09.631Z,98381.91
2024-03-05T08:48:41.677Z,98389.06
2024-03-05T08:51:13.647Z,98392.85
2024-03-05T08:53:45.465Z,98389.10
2024-03-05T08:56:17.272Z,98387.10
2024-03-05T08:58:49.130Z,98388.52
2024-03-05T09:01:21.043Z,98395.11
2024-03-05T09:03:53.446Z,98401.77
2024-03-05T09:06:25.228Z,98401.41
2024-03-05T09:08:57.003Z,98405.27
2024-03-05T09:11:29.030Z,98409.77
2024-03-05T09:14:00.952Z,98412.73
2024-03-05T09:16:33.954Z,98415.84
2024-03-05T09:19:06.020Z,98418.33
2024-03-05T09:21:37.775Z,98422.72
2024-03-05T09:24:10.604Z,98423.62
2024-03-05T09:26:42.381Z,98417.29
2024-03-05T09:29:16.438Z,98423.02
2024-03-05T09:31:48.550Z,98423.59
2024-03-05T09:34:21.275Z,98426.78
2024-03-05T09:36:53.146Z,98431.67
2024-03-05T09:39:24.897Z,98434.48
2024-03-05T09:41:56.924Z,98439.57
2024-03-05T09:44:29.908Z,98440.86
2024-03-05T09:47:03.291Z,98443.50
2024-03-05T09:49:35.694Z,98441.26
2024-03-05T09:52:09.095Z,98447.69
2024-03-05T09:54:42.997Z,98445.95
2024-03-05T09:57:15.594Z,98447.00
2024-03-05T09:59:48.248Z,98448.21
2024-03-05T10:02:20.532Z,98449.25
2024-03-05T10:04:55.769Z,98452.19
2024-03-05T10:07:29.044Z,98453.58
2024-03-05T10:10:12.544Z,98462.61
2024-03-05T10:12:45.213Z,98463.02
2024-03-05T10:15:20.131Z,98472.42
2024-03-05T10:17:54.384Z,98470.13
2024-03-05T10:20:33.407Z,98470.48
2024-03-05T10:23:09.192Z,98471.35
2024-03-05T10:25:41.591Z,98473.88
2024-03-05T10:28:14.208Z,98473.83
2024-03-05T10:30:48.262Z,98476.79
2024-03-05T10:33:24.743Z,98477.26
2024-03-05T10:35:57.535Z,98479.48
2024-03-05T10:38:29.259Z,98477.95
2024-03-05T10:41:01.819Z,98481.89
2024-03-05T10:43:37.004Z,98481.88
2024-03-05T10:46:08.871Z,98480.00
2024-03-05T10:48:42.699Z,98482.79
2024-03-05T10:51:16.175Z,98482.08
2024-03-05T10:53:49.943Z,98481.36
2024-03-05T10:56:29.140Z,98484.34
2024-03-05T10:59:23.918Z,98485.21
2024-03-05T11:01:57.551Z,98488.84
2024-03-05T11:04:33.196Z,98490.48
2024-03-05T11:07:07.617Z,98488.65
2024-03-05T11:09:43.208Z,98489.48
2024-03-05T11:12:19.931Z,98489.59
2024-03-05T11:14:51.715Z,98485.19
2024-03-05T11:17:23.897Z,98483.46
2024-03-05T11:19:57.834Z,98484.61
2024-03-05T11:22:31.241Z,98483.05
2024-03-05T11:25:07.125Z,98480.58
2024-03-05T11:27:39.052Z,98472.64
2024-03-05T11:30:16.983Z,98469.79
2024-03-05T11:32:52.505Z,98467.02
2024-03-05T11:35:27.313Z,98462.83
2024-03-05T11:38:00.611Z,98464.86
2024-03-05T11:40:35.469Z,98465.68
2024-03-05T11:43:07.721Z,98459.14
2024-03-05T11:45:50.356Z,98458.96
2024-03-05T11:48:24.278Z,98459.74
2024-03-05T11:50:56.854Z,98460.81
2024-03-05T11:53:30.043Z,98467.14
2024-03-05T11:56:09.761Z,98461.73
2024-03-05T11:58:42.110Z,98463.91
2024-03-05T12:01:16.949Z,98464.11
2024-03-05T12:03:50.396Z,98467.11
2024-03-05T12:06:22.336Z,98470.35
2024-03-05T12:08:55.685Z,98473.80
2024-03-05T12:11:27.714Z,98473.14
2024-03-05T12:14:09.775Z,98472.48
2024-03-05T12:16:41.662Z,98468.04
2024-03-05T12:19:15.901Z,98471.45
2024-03-05T12:21:47.815Z,98473.23
2024-03-05T12:24:19.689Z,98476.45
2024-03-05T12:26:51.764Z,98482.19
2024-03-05T12:29:30.951Z,98482.98
2024-03-05T12:32:06.459Z,98485.97
2024-03-05T12:34:39.095Z,98483.73
2024-03-05T12:37:12.765Z,98491.89
2024-03-05T12:39:44.772Z,98494.91
2024-03-05T12:42:24.714Z,98495.43
2024-03-05T12:45:09.392Z,98498.19
2024-03-05T12:47:42.506Z,98498.35
2024-03-05T12:50:14.884Z,98499.65
2024-03-05T12:52:46.815Z,98500.95
2024-03-05T12:55:18.768Z,98497.98
2024-03-05T12:57:50.711Z,98498.53
2024-03-05T13:00:22.724Z,98502.73
2024-03-05T13:02:54.688Z,98504.20
2024-03-05T13:05:28.144Z,98508.65
2024-03-05T13:08:00.335Z,98508.54
2024-03-05T13:10:33.514Z,98513.70
2024-03-05T13:13:05.759Z,98516.23
2024-03-05T13:15:38.344Z,98518.80
2024-03-05T13:18:10.409Z,98518.53
2024-03-05T13:20:42.274Z,98522.66
2024-03-05T13:23:14.094Z,98521.55
2024-03-05T13:25:45.907Z,98520.45
2024-03-05T13:28:17.716Z,98522.13
2024-03-05T13:30:49.570Z,98522.85
2024-03-05T13:33:35.160Z,98524.83
2024-03-05T13:36:08.036Z,98527.66
2024-03-05T13:38:39.883Z,98529.81
2024-03-05T13:41:12.496Z,98535.83
2024-03-05T13:43:44.343Z,98538.58
2024-03-05T13:46:16.354Z,98537.98
2024-03-05T13:48:50.528Z,98537.54
2024-03-05T13:51:22.340Z,98534.66
2024-03-05T13:53:54.362Z,98537.83
2024-03-05T13:56:26.366Z,98536.27
2024-03-05T13:58:59.043Z,98536.48
2024-03-05T14:01:32.422Z,98530.52
2024-03-05T14:04:09.634Z,98535.54
2024-03-05T14:06:42.404Z,98534.10
2024-03-05T14:09:15.089Z,98526.89
2024-03-05T14:11:46.934Z,98519.54
2024-03-05T14:14:21.309Z,98529.08
2024-03-05T14:16:53.443Z,98534.04
2024-03-05T14:19:25.262Z,98537.02
2024-03-05T14:22:00.293Z,98542.15
2024-03-05T14:24:32.120Z,98544.98
2024-03-05T14:27:03.889Z,98552.44
2024-03-05T14:29:35.711Z,98560.27
2024-03-05T14:32:08.377Z,98561.10
2024-03-05T14:34:43.446Z,98567.45
2024-03-05T14:37:15.730Z,98568.25
2024-03-05T14:39:47.499Z,98567.16
2024-03-05T14:42:19.270Z,98570.16
2024-03-05T14:44:51.046Z,98574.04
2024-03-05T14:47:22.947Z,98578.66
2024-03-05T14:49:54.772Z,98583.81
2024-03-05T14:52:26.752Z,98586.02
2024-03-05T14:55:01.473Z,98584.95
2024-03-05T14:57:33.548Z,98591.22
2024-03-05T15:00:06.000Z,98589.25
2024-03-05T15:02:37.886Z,98591.83
2024-03-05T15:05:12.110Z,98591.98
2024-03-05T15:07:45.063Z,98592.79
2024-03-05T15:10:20.461Z,98595.33
2024-03-05T15:12:53.203Z,98601.18
2024-03-05T15:15:25.905Z,98602.42
2024-03-05T15:17:57.693Z,98609.30
2024-03-05T15:20:29.576Z,98617.26
2024-03-05T15:23:01.480Z,98620.63
2024-03-05T15:25:35.900Z,98622.64
2024-03-05T15:28:09.429Z,98625.14
2024-03-05T15:30:41.302Z,98628.67
2024-03-05T15:33:13.263Z,98631.02
2024-03-05T15:35:45.246Z,98629.86
2024-03-05T15:38:18.118Z,98632.69
2024-03-05T15:40:50.087Z,98633.64
2024-03-05T15:43:22.085Z,98637.53
2024-03-05T15:45:54.097Z,98636.50
2024-03-05T15:48:26.015Z,98639.70
2024-03-05T15:50:57.980Z,98646.02
2024-03-05T15:53:29.865Z,98653.36
2024-03-05T15:56:13.056Z,98653.74
2024-03-05T15:59:02.459Z,98657.61
2024-03-05T16:01:35.146Z,98664.60
2024-03-05T16:04:30.008Z,98663.38
2024-03-05T16:07:02.775Z,98666.56
2024-03-05T16:09:34.603Z,98674.95
2024-03-05T16:12:07.671Z,98677.59
2024-03-05T16:14:41.660Z,98679.02
2024-03-05T16:17:14.266Z,98683.40
2024-03-05T16:19:46.101Z,98683.05
2024-03-05T16:22:17.985Z,98684.29
2024-03-05T16:24:51.299Z,98684.67
2024-03-05T16:27:24.029Z,98695.70
2024-03-05T16:29:55.782Z,98699.02
2024-03-05T16:32:27.975Z,98703.93
2024-03-05T16:34:59.754Z,98708.52
2024-03-05T16:37:33.549Z,98707.52
2024-03-05T16:40:06.386Z,98715.23
2024-03-05T16:42:40.612Z,98716.80
2024-03-05T16:45:14.786Z,98722.06
2024-03-05T16:47:47.755Z,98724.02
2024-03-05T16:50:20.462Z,98728.23
2024-03-05T16:52:53.433Z,98731.73
2024-03-05T16:55:25.655Z,98734.71
2024-03-05T16:58:00.126Z,98736.64
2024-03-05T17:00:35.180Z,98745.89
2024-03-05T17:03:12.349Z,98747.83
2024-03-05T17:05:47.710Z,98750.46
2024-03-05T17:08:22.108Z,98745.08
2024-03-05T17:10:55.043Z,98751.56
2024-03-05T17:13:30.948Z,98752.98
2024-03-05T17:16:04.738Z,98754.77
2024-03-05T17:18:36.694Z,98755.67
2024-03-05T17:21:08.795Z,98749.31
2024-03-05T17:23:43.792Z,98749.05
2024-03-05T17:26:17.245Z,98747.05
2024-03-05T17:28:49.260Z,98751.80
2024-03-05T17:31:21.114Z,98751.67
2024-03-05T17:33:53.608Z,98755.38
2024-03-05T17:36:25.375Z,98752.27
2024-03-05T17:38:57.128Z,98752.64
2024-03-05T17:41:30.178Z,98750.09
2024-03-05T17:44:02.028Z,98748.90
2024-03-05T17:46:36.090Z,98751.04
2024-03-05T17:49:09.223Z,98749.86
2024-03-05T17:51:42.532Z,98748.86
2024-03-05T17:54:14.299Z,98756.54
2024-03-05T17:56:46.073Z,98763.19
2024-03-05T17:59:17.851Z,98771.03
2024-03-05T18:01:49.746Z,98775.77
2024-03-05T18:04:21.766Z,98780.26
2024-03-05T18:06:54.525Z,98779.92
2024-03-05T18:09:26.876Z,98786.71
2024-03-05T18:12:02.177Z,98791.60
2024-03-05T18:14:34.043Z,98801.34
2024-03-05T18:17:08.906Z,98797.17
2024-03-05T18:19:41.035Z,98803.45
2024-03-05T18:22:12.980Z,98801.02
2024-03-05T18:24:44.749Z,98808.85
2024-03-05T18:27:16.784Z,98806.58
2024-03-05T18:29:48.590Z,98809.02
2024-03-05T18:32:20.419Z,98814.21
2024-03-05T18:34:52.911Z,98813.19
2024-03-05T18:37:24.929Z,98814.73
2024-03-05T18:39:57.078Z,98815.97
2024-03-05T18:42:29.865Z,98821.33
2024-03-05T18:45:05.467Z,98825.15
2024-03-05T18:47:40.358Z,98829.83
2024-03-05T18:50:15.642Z,98830.34
2024-03-05T18:52:47.674Z,98831.55
2024-03-05T18:55:19.773Z,98835.35
2024-03-05T18:57:51.767Z,98837.42
2024-03-05T19:00:24.633Z,98836.73
2024-03-05T19:02:56.551Z,98845.90
2024-03-05T19:05:28.540Z,98841.73
2024-03-05T19:08:00.398Z,98843.45
2024-03-05T19:10:32.837Z,98846.73
2024-03-05T19:13:04.892Z,98846.55
2024-03-05T19:15:38.099Z,98848.98
2024-03-05T19:18:10.412Z,98844.81
2024-03-05T19:20:43.635Z,98847.92
2024-03-05T19:23:15.740Z,98848.95
2024-03-05T19:25:47.659Z,98849.11
2024-03-05T19:28:19.488Z,98847.38
2024-03-05T19:30:52.163Z,98846.34
2024-03-05T19:33:24.047Z,98848.58
2024-03-05T19:35:55.968Z,98847.02
2024-03-05T19:38:28.447Z,98848.89
2024-03-05T19:41:00.537Z,98849.05
2024-03-05T19:43:37.040Z,98846.61
2024-03-05T19:46:08.109Z,98843.29
2024-03-05T19:48:40.141Z,98848.48
2024-03-05T19:51:14.016Z,98847.40
2024-03-05T19:53:49.427Z,98849.63
2024-03-05T19:56:23.161Z,98854.64
2024-03-05T19:58:57.835Z,98855.84
2024-03-05T20:01:29.736Z,98857.17
2024-03-05T20:04:01.656Z,98857.51
2024-03-05T20:06:33.553Z,98851.94
2024-03-05T20:09:08.180Z,98856.23
2024-03-05T20:11:40.459Z,98850.33
2024-03-05T20:14:13.117Z,98849.27
2024-03-05T20:16:47.857Z,98851.67
2024-03-05T20:19:20.817Z,98853.36
2024-03-05T20:21:53.084Z,98853.35
2024-03-05T20:24:24.977Z,98859.23
2024-03-05T20:26:59.905Z,98859.94
2024-03-05T20:29:31.938Z,98862.52
2024-03-05T20:32:07.242Z,98865.33
2024-03-05T20:34:39.626Z,98861.88
2024-03-05T20:37:11.464Z,98861.91
2024-03-05T20:39:45.937Z,98863.15
2024-03-05T20:42:17.826Z,98863.35
2024-03-05T20:44:49.564Z,98865.27
2024-03-05T20:47:21.325Z,98867.04
2024-03-05T20:49:53.433Z,98866.52
2024-03-05T20:52:26.000Z,98869.14
2024-03-05T20:54:58.053Z,98873.65
2024-03-05T20:57:29.806Z,98871.56
2024-03-05T21:00:07.767Z,98875.73
2024-03-05T21:02:40.126Z,98873.66
2024-03-05T21:05:14.560Z,98876.27
2024-03-05T21:07:46.671Z,98879.90
2024-03-05T21:10:18.474Z,98880.42
2024-03-05T21:12:50.396Z,98881.27
2024-03-05T21:15:22.459Z,98878.10
2024-03-05T21:17:54.617Z,98882.59
2024-03-05T21:20:26.691Z,98883.25
2024-03-05T21:22:58.529Z,98888.39
2024-03-05T21:25:36.564Z,98888.90
2024-03-05T21:28:16.050Z,98894.60
2024-03-05T21:30:47.858Z,98899.46
2024-03-05T21:33:19.652Z,98901.16
2024-03-05T21:35:51.485Z,98899.23
2024-03-05T21:38:23.244Z,98900.92
2024-03-05T21:40:55.070Z,98897.05
2024-03-05T21:43:26.914Z,98896.11
2024-03-05T21:45:58.657Z,98899.02
2024-03-05T21:48:30.644Z,98902.26
2024-03-05T21:51:09.171Z,98904.83
2024-03-05T21:53:44.658Z,98907.54
2024-03-05T21:56:19.533Z,98919.97
2024-03-05T21:58:51.606Z,98914.03
2024-03-05T22:01:23.738Z,98915.70
2024-03-05T22:03:55.480Z,98920.35
2024-03-05T22:06:27.240Z,98919.63
2024-03-05T22:09:09.751Z,98918.69
2024-03-05T22:11:42.868Z,98919.35
2024-03-05T22:14:14.999Z,98918.10
2024-03-05T22:16:46.841Z,98915.27
2024-03-05T22:19:18.726Z,98917.34
2024-03-05T22:21:50.678Z,98914.86
2024-03-05T22:24:22.450Z,98919.28
2024-03-05T22:26:54.251Z,98919.93
2024-03-05T22:29:26.667Z,98918.34
2024-03-05T22:31:58.580Z,98920.86
2024-03-05T22:34:32.194Z,98914.95
2024-03-05T22:37:04.326Z,98917.67
2024-03-05T22:39:36.094Z,98918.65
2024-03-05T22:42:07.970Z,98927.60
2024-03-05T22:44:40.561Z,98928.95
2024-03-05T22:47:12.378Z,98929.39
2024-03-05T22:49:46.509Z,98929.86
2024-03-05T22:52:21.042Z,98929.65
2024-03-05T22:54:52.905Z,98927.38
2024-03-05T22:57:25.544Z,98927.33
2024-03-05T22:59:57.480Z,98932.29
2024-03-05T23:02:29.333Z,98936.57
2024-03-05T23:05:01.162Z,98940.98
2024-03-05T23:07:33.058Z,98945.23
2024-03-05T23:10:06.549Z,98942.94
2024-03-05T23:12:38.536Z,98944.61
2024-03-05T23:15:16.087Z,98947.50
2024-03-05T23:17:48.674Z,98947.44
2024-03-05T23:20:20.695Z,98950.87
2024-03-05T23:22:52.545Z,98956.50
2024-03-05T23:25:24.463Z,98954.23
2024-03-05T23:27:57.670Z,98958.69
2024-03-05T23:30:30.532Z,98956.23
2024-03-05T23:33:02.468Z,98959.42
2024-03-05T23:35:34.319Z,98961.60
2024-03-05T23:38:07.870Z,98959.48
2024-03-05T23:40:39.911Z,98959.55
2024-03-05T23:43:11.688Z,98963.14
2024-03-05T23:45:43.424Z,98965.67
2024-03-05T23:48:15.228Z,98962.31
2024-03-05T23:50:47.057Z,98965.57
2024-03-05T23:53:19.273Z,98964.49
2024-03-05T23:55:51.308Z,98964.96
2024-03-05T23:58:23.150Z,98962.88
